Time;durP1;ratioP1;P1;durP2;ratioP2;P2;SDS_P1;SDS_P2;PMS_P1;PMS_P2;Temp;Humidity;BMP_temperature;BMP_pressure;BME280_temperature;BME280_humidity;BME280_pressure;Samples;Min_cycle;Max_cycle;Signal;HPM_P1;HPM_P2
2021/12/04 00:00:14;;;;;;;;;;;;;;;4.33;100.00;90185.22;5071308;28;19921;-63
2021/12/04 00:02:40;;;;;;;;;;;;;;;4.35;100.00;90175.97;5071296;28;19932;-63
2021/12/04 00:05:06;;;;;;;;;;;;;;;4.28;100.00;90175.56;5071210;28;19924;-63
2021/12/04 00:07:33;;;;;;;;;;;;;;;4.26;100.00;90190.88;5071172;28;19924;-63
2021/12/04 00:10:01;;;;;;;;;;;;;;;4.35;100.00;90197.03;5071203;28;19927;-63
2021/12/04 00:12:30;;;;;;;;;;;;;;;4.26;100.00;90187.44;5071198;28;19924;-63
2021/12/04 00:14:56;;;;;;;;;;;;;;;4.24;100.00;90194.84;5071053;28;19931;-63
2021/12/04 00:17:21;;;;;;;;;;;;;;;4.24;100.00;90200.09;5070918;28;19920;-63
2021/12/04 00:19:47;;;;;;;;;;;;;;;4.22;100.00;90201.19;5076612;28;19921;-63
2021/12/04 00:22:12;;;;;;;;;;;;;;;4.11;100.00;90204.28;5079005;28;19921;-63
2021/12/04 00:24:38;;;;;;;;;;;;;;;4.01;100.00;90209.69;5071065;28;20385;-63
2021/12/04 00:27:03;;;;;;;;;;;;;;;3.97;100.00;90209.47;5070982;28;19921;-63
2021/12/04 00:29:29;;;;;;;;;;;;;;;4.01;100.00;90212.31;5071020;28;19920;-63
2021/12/04 00:32:08;;;;;;;;;;;;;;;3.98;100.00;90207.63;5070978;28;19920;-63
2021/12/04 00:34:37;;;;;;;;;;;;;;;3.98;100.00;90213.69;5070719;28;19927;-63
2021/12/04 00:37:52;;;;;;;;;;;;;;;3.94;100.00;90222.41;5071149;28;19920;-63
2021/12/04 00:50:48;;;;;;;;;;;;;;;3.62;100.00;90179.19;5090980;28;19926;-63
2021/12/04 00:53:13;;;;;;;;;;;;;;;3.53;100.00;90175.66;5090940;28;20022;-63
2021/12/04 00:55:38;;;;;;;;;;;;;;;3.46;100.00;90168.09;5090817;28;19996;-63
2021/12/04 00:58:04;;;;;;;;;;;;;;;3.45;100.00;90171.03;5092309;28;19924;-63
2021/12/04 01:00:29;;;;;;;;;;;;;;;3.45;100.00;90171.03;5094508;28;19921;-63
2021/12/04 01:02:55;;;;;;;;;;;;;;;3.47;100.00;90174.13;5094468;28;20018;-62
2021/12/04 01:05:20;;;;;;;;;;;;;;;3.47;100.00;90171.50;5094372;28;19923;-62
2021/12/04 01:07:46;;;;;;;;;;;;;;;3.49;100.00;90177.28;5094288;28;20398;-63
2021/12/04 01:10:11;;;;;;;;;;;;;;;3.44;100.00;90166.81;5094312;28;19920;-62
2021/12/04 01:12:37;;;;;;;;;;;;;;;3.36;100.00;90162.22;5094190;28;19934;-62
2021/12/04 01:15:03;;;;;;;;;;;;;;;3.37;100.00;90175.06;5094156;28;19921;-62
2021/12/04 01:17:28;;;;;;;;;;;;;;;3.43;100.00;90181.03;5093959;28;20393;-62
2021/12/04 01:19:54;;;;;;;;;;;;;;;3.49;100.00;90179.94;5094008;28;19979;-62
2021/12/04 01:22:20;;;;;;;;;;;;;;;3.57;100.00;90152.97;5094047;28;20034;-62
2021/12/04 01:24:46;;;;;;;;;;;;;;;3.68;100.00;90154.41;5094232;28;20018;-62
2021/12/04 01:27:14;;;;;;;;;;;;;;;3.64;100.00;90150.78;5094033;28;19970;-62
2021/12/04 01:29:39;;;;;;;;;;;;;;;3.56;100.00;90146.16;5094186;28;19924;-62
2021/12/04 01:32:07;;;;;;;;;;;;;;;3.52;100.00;90139.91;5093887;28;20380;-62
2021/12/04 01:34:33;;;;;;;;;;;;;;;3.40;100.00;90158.72;5093534;28;20359;-62
2021/12/04 01:36:59;;;;;;;;;;;;;;;3.25;100.00;90164.97;5093741;28;19977;-62
2021/12/04 01:39:24;;;;;;;;;;;;;;;3.22;100.00;90162.91;5093711;28;19916;-62
2021/12/04 01:41:49;;;;;;;;;;;;;;;3.21;100.00;90161.34;5093739;28;19916;-62
2021/12/04 01:44:15;;;;;;;;;;;;;;;3.14;100.00;90171.41;5093611;28;19916;-62
2021/12/04 01:46:42;;;;;;;;;;;;;;;3.15;100.00;90175.59;5093397;28;20397;-62
2021/12/04 01:49:07;;;;;;;;;;;;;;;3.19;100.00;90181.88;5093876;28;19920;-62
2021/12/04 01:51:33;;;;;;;;;;;;;;;3.21;100.00;90181.59;5093436;28;19938;-62
2021/12/04 01:53:58;;;;;;;;;;;;;;;3.21;100.00;90176.34;5093335;28;20447;-62
2021/12/04 01:56:28;;;;;;;;;;;;;;;3.18;100.00;90167.19;5093315;28;19924;-62
2021/12/04 01:58:53;;;;;;;;;;;;;;;3.18;100.00;90161.94;5093380;28;19922;-62
2021/12/04 02:01:18;;;;;;;;;;;;;;;3.16;100.00;90155.38;5093381;28;20014;-62
2021/12/04 02:03:44;;;;;;;;;;;;;;;3.11;100.00;90147.56;5093300;28;19924;-62
2021/12/04 02:06:09;;;;;;;;;;;;;;;3.05;100.00;90152.09;5093136;28;19981;-62
2021/12/04 02:08:35;;;;;;;;;;;;;;;3.04;100.00;90150.53;5092992;28;19916;-62
2021/12/04 02:11:00;;;;;;;;;;;;;;;3.10;100.00;90138.09;5093197;28;19985;-62
2021/12/04 02:13:26;;;;;;;;;;;;;;;3.13;100.00;90138.31;5093072;28;20442;-62
2021/12/04 02:15:52;;;;;;;;;;;;;;;3.13;100.00;90138.31;5092947;28;20007;-62
2021/12/04 02:18:18;;;;;;;;;;;;;;;3.16;100.00;90137.00;5093129;28;19916;-62
2021/12/04 02:20:44;;;;;;;;;;;;;;;3.29;100.00;90142.31;5092900;28;20393;-62
2021/12/04 02:23:10;;;;;;;;;;;;;;;3.34;100.00;90146.72;5092926;28;19916;-63
2021/12/04 02:25:36;;;;;;;;;;;;;;;3.38;100.00;90131.94;5092858;28;19916;-63
2021/12/04 02:28:02;;;;;;;;;;;;;;;3.51;100.00;90125.19;5092861;28;19930;-62
2021/12/04 02:30:32;;;;;;;;;;;;;;;3.50;100.00;90126.28;5092851;28;19927;-62
2021/12/04 02:32:57;;;;;;;;;;;;;;;3.48;100.00;90123.16;5092684;28;19927;-62
2021/12/04 02:35:25;;;;;;;;;;;;;;;3.56;100.00;90117.22;5092547;28;20333;-63
2021/12/04 02:37:50;;;;;;;;;;;;;;;3.64;100.00;90108.72;5092703;28;19924;-62
2021/12/04 02:40:18;;;;;;;;;;;;;;;3.57;100.00;90097.75;5092667;28;19916;-62
2021/12/04 02:42:44;;;;;;;;;;;;;;;3.60;100.00;90091.91;5080946;28;19920;-63
2021/12/04 02:45:11;;;;;;;;;;;;;;;3.53;100.00;90094.16;5092455;28;19916;-62
2021/12/04 02:47:36;;;;;;;;;;;;;;;3.47;100.00;90103.16;5079143;28;20171;-63
2021/12/04 02:50:05;;;;;;;;;;;;;;;3.32;100.00;90098.94;5080932;28;19954;-62
2021/12/04 02:52:31;;;;;;;;;;;;;;;3.19;100.00;90103.03;5072115;28;19916;-62
2021/12/04 02:54:56;;;;;;;;;;;;;;;3.07;100.00;90107.94;5072081;28;20053;-62
2021/12/04 02:57:22;;;;;;;;;;;;;;;3.00;100.00;90110.91;5071929;28;20394;-62
2021/12/04 02:59:48;;;;;;;;;;;;;;;2.95;100.00;90125.94;5072239;28;20396;-62
2021/12/04 03:02:19;;;;;;;;;;;;;;;2.87;100.00;90121.34;5071955;28;19920;-62
2021/12/04 03:04:52;;;;;;;;;;;;;;;2.78;100.00;90121.16;5071892;28;20393;-62
2021/12/04 03:07:18;;;;;;;;;;;;;;;2.86;100.00;90119.78;5071785;28;19920;-62
2021/12/04 03:09:43;;;;;;;;;;;;;;;2.87;100.00;90131.84;5072211;28;20286;-62
2021/12/04 03:12:09;;;;;;;;;;;;;;;2.93;100.00;90138.59;5071914;28;20354;-62
2021/12/04 03:14:35;;;;;;;;;;;;;;;2.89;100.00;90137.59;5071805;28;19917;-63
2021/12/04 03:17:00;;;;;;;;;;;;;;;3.00;100.00;90126.69;5071811;28;19923;-62
2021/12/04 03:19:27;;;;;;;;;;;;;;;3.00;100.00;90131.16;5072034;28;19920;-62
2021/12/04 03:21:52;;;;;;;;;;;;;;;2.95;100.00;90123.31;5071265;28;20424;-62
2021/12/04 03:24:18;;;;;;;;;;;;;;;2.96;100.00;90117.00;5071906;28;19916;-62
2021/12/04 03:26:46;;;;;;;;;;;;;;;2.87;100.00;90116.09;5071675;28;20299;-62
2021/12/04 03:29:16;;;;;;;;;;;;;;;2.89;100.00;90121.84;5071687;28;19955;-62
2021/12/04 03:42:29;;;;;;;;;;;;;;;2.71;100.00;90126.00;5071341;28;20001;-62
2021/12/04 03:44:55;;;;;;;;;;;;;;;2.71;100.00;90131.25;5071494;28;20374;-62
2021/12/04 03:47:21;;;;;;;;;;;;;;;2.81;100.00;90133.72;5071266;28;19923;-63
2021/12/04 03:49:47;;;;;;;;;;;;;;;2.90;100.00;90139.16;5071460;28;19928;-62
2021/12/04 03:52:12;;;;;;;;;;;;;;;2.96;100.00;90138.78;5071374;28;19921;-62
2021/12/04 03:54:37;;;;;;;;;;;;;;;2.96;100.00;90145.91;5071165;28;19922;-62
2021/12/04 03:57:04;;;;;;;;;;;;;;;2.95;100.00;90142.50;5071336;28;19959;-62
2021/12/04 03:59:34;;;;;;;;;;;;;;;3.00;100.00;90147.69;5071272;28;19923;-62
2021/12/04 04:02:00;;;;;;;;;;;;;;;3.01;100.00;90156.38;5071298;28;19920;-62
2021/12/04 04:04:26;;;;;;;;;;;;;;;3.05;100.00;90154.72;5071269;28;19916;-62
2021/12/04 04:06:51;;;;;;;;;;;;;;;3.06;100.00;90160.75;5071307;28;19973;-62
2021/12/04 04:09:16;;;;;;;;;;;;;;;3.10;100.00;90159.91;5071283;28;19967;-62
2021/12/04 04:11:42;;;;;;;;;;;;;;;3.11;100.00;90163.31;5071283;28;19924;-62
2021/12/04 04:14:08;;;;;;;;;;;;;;;3.12;100.00;90157.78;5071412;28;19917;-62
2021/12/04 04:16:36;;;;;;;;;;;;;;;3.12;100.00;90155.16;5071079;28;20444;-62
2021/12/04 04:19:02;;;;;;;;;;;;;;;3.17;100.00;90155.09;5071398;28;19973;-63
2021/12/04 04:21:27;;;;;;;;;;;;;;;3.07;100.00;90149.97;5069759;28;20024;-62
2021/12/04 04:23:53;;;;;;;;;;;;;;;2.90;100.00;90145.19;5071147;28;20005;-62
2021/12/04 04:26:18;;;;;;;;;;;;;;;2.83;100.00;90154.47;5070913;28;20371;-62
2021/12/04 04:28:44;;;;;;;;;;;;;;;2.76;100.00;90144.31;5071029;28;19982;-62
2021/12/04 04:31:10;;;;;;;;;;;;;;;2.81;100.00;90151.34;5070957;28;20015;-62
2021/12/04 04:33:39;;;;;;;;;;;;;;;2.63;100.00;90145.75;5073007;28;19920;-62
2021/12/04 04:36:41;;;;;;;;;;;;;;;2.66;100.00;90155.69;5073263;28;20317;-62
2021/12/04 05:11:57;;;;;;;;;;;;;;;2.62;100.00;90167.81;5094680;28;19962;-63
2021/12/04 05:14:23;;;;;;;;;;;;;;;2.60;100.00;90159.44;5094201;28;19916;-63
2021/12/04 05:17:09;;;;;;;;;;;;;;;2.62;100.00;90152.06;5094134;28;19927;-63
2021/12/04 05:19:40;;;;;;;;;;;;;;;2.70;100.00;90150.69;5094278;28;19916;-63
2021/12/04 05:22:07;;;;;;;;;;;;;;;2.73;100.00;90151.97;5094234;28;19916;-63
2021/12/04 05:24:32;;;;;;;;;;;;;;;2.76;100.00;90157.44;5094110;28;20049;-63
2021/12/04 05:26:57;;;;;;;;;;;;;;;2.70;100.00;90156.72;5094005;28;20006;-63
2021/12/04 05:29:23;;;;;;;;;;;;;;;2.78;100.00;90165.81;5094090;28;19916;-63
2021/12/04 05:31:48;;;;;;;;;;;;;;;2.81;100.00;90151.34;5093988;28;19920;-63
2021/12/04 05:34:14;;;;;;;;;;;;;;;2.73;100.00;90155.38;5093649;28;19920;-63
2021/12/04 05:36:39;;;;;;;;;;;;;;;2.67;100.00;90173.00;5093733;28;19916;-63
2021/12/04 05:39:05;;;;;;;;;;;;;;;2.73;100.00;90172.97;5093895;28;19946;-63
2021/12/04 05:41:31;;;;;;;;;;;;;;;2.70;100.00;90169.84;5093796;28;20301;-63
2021/12/04 05:43:57;;;;;;;;;;;;;;;2.70;100.00;90172.47;5093259;28;19920;-63
2021/12/04 05:46:27;;;;;;;;;;;;;;;2.76;100.00;90175.03;5093758;28;19920;-63
2021/12/04 05:48:58;;;;;;;;;;;;;;;2.78;100.00;90165.03;5093541;28;19916;-63
2021/12/04 05:54:30;;;;;;;;;;;;;;;2.62;100.00;90172.28;5093383;28;19927;-63
2021/12/04 05:56:52;;;;;;;;;;;;;;;2.63;100.00;90176.47;5093420;28;19920;-63
2021/12/04 05:59:18;;;;;;;;;;;;;;;2.54;100.00;90168.44;5093343;28;19973;-63
2021/12/04 06:01:43;;;;;;;;;;;;;;;2.52;100.00;90186.28;5093399;28;19977;-63
2021/12/04 06:04:09;;;;;;;;;;;;;;;2.57;100.00;90177.59;5093219;28;19946;-63
2021/12/04 06:06:34;;;;;;;;;;;;;;;2.56;100.00;90184.69;5092904;28;19924;-63
2021/12/04 06:08:59;;;;;;;;;;;;;;;2.59;100.00;90181.50;5093222;28;20396;-63
2021/12/04 06:11:25;;;;;;;;;;;;;;;2.58;100.00;90185.19;5093160;28;19916;-63
2021/12/04 06:13:50;;;;;;;;;;;;;;;2.67;100.00;90185.34;5093083;28;19916;-63
2021/12/04 06:16:16;;;;;;;;;;;;;;;2.63;100.00;90187.75;5093003;28;19964;-63
2021/12/04 06:18:45;;;;;;;;;;;;;;;2.69;100.00;90191.91;5093013;28;19916;-63
2021/12/04 06:23:54;;;;;;;;;;;;;;;2.74;100.00;90179.78;5069419;28;19931;-63
2021/12/04 06:26:20;;;;;;;;;;;;;;;2.81;100.00;90190.72;5071816;28;19916;-64
2021/12/04 06:28:45;;;;;;;;;;;;;;;2.83;100.00;90191.22;5072175;28;20070;-63
2021/12/04 06:31:11;;;;;;;;;;;;;;;2.79;100.00;90201.50;5071333;28;19916;-66
2021/12/04 06:33:37;;;;;;;;;;;;;;;2.84;100.00;90208.53;5071893;28;20394;-63
2021/12/04 06:36:03;;;;;;;;;;;;;;;2.84;100.00;90203.28;5071971;28;19959;-63
2021/12/04 06:38:28;;;;;;;;;;;;;;;2.72;100.00;90213.44;5072183;28;20350;-63
2021/12/04 06:40:54;;;;;;;;;;;;;;;2.69;100.00;90218.19;5072064;28;19916;-63
2021/12/04 06:43:20;;;;;;;;;;;;;;;2.64;100.00;90207.72;5072046;28;19969;-66
2021/12/04 06:45:51;;;;;;;;;;;;;;;2.65;100.00;90206.66;5069728;28;20022;-64
2021/12/04 06:48:22;;;;;;;;;;;;;;;2.66;100.00;90213.47;5071713;28;20352;-63
2021/12/04 06:50:57;;;;;;;;;;;;;;;2.62;100.00;90203.78;5071619;28;20306;-64
2021/12/04 06:56:08;;;;;;;;;;;;;;;2.54;100.00;90231.44;5070958;28;19923;-63
2021/12/04 06:58:33;;;;;;;;;;;;;;;2.57;100.00;90246.66;5071854;28;19959;-63
2021/12/04 07:00:59;;;;;;;;;;;;;;;2.43;100.00;90245.72;5070825;28;20385;-63
2021/12/04 07:03:24;;;;;;;;;;;;;;;2.49;100.00;90254.31;5070333;28;20302;-64
2021/12/04 07:05:50;;;;;;;;;;;;;;;2.56;100.00;90258.22;5071349;28;19916;-63
2021/12/04 07:08:16;;;;;;;;;;;;;;;2.60;100.00;90251.34;5071653;28;20373;-63
2021/12/04 07:10:41;;;;;;;;;;;;;;;2.61;100.00;90247.66;5071690;28;19916;-63
2021/12/04 07:13:07;;;;;;;;;;;;;;;2.67;100.00;90241.28;5071475;28;19924;-62
2021/12/04 07:15:33;;;;;;;;;;;;;;;2.99;100.00;90248.56;5070405;28;19970;-62
2021/12/04 07:18:00;;;;;;;;;;;;;;;3.16;100.00;90256.03;5085634;28;19920;-62
2021/12/04 07:20:25;;;;;;;;;;;;;;;3.24;100.00;90255.41;5091089;28;20270;-62
2021/12/04 07:22:51;;;;;;;;;;;;;;;3.08;100.00;90248.75;5091249;28;19931;-62
2021/12/04 07:25:16;;;;;;;;;;;;;;;3.21;100.00;90255.19;5090861;28;19920;-63
2021/12/04 07:27:42;;;;;;;;;;;;;;;3.37;100.00;90261.03;5091294;28;19917;-62
2021/12/04 07:30:08;;;;;;;;;;;;;;;3.40;100.00;90252.59;5090403;28;19920;-63
2021/12/04 07:32:35;;;;;;;;;;;;;;;3.51;100.00;90249.56;5090277;28;19985;-63
2021/12/04 07:35:00;;;;;;;;;;;;;;;3.70;100.00;90249.56;5091057;28;19916;-63
2021/12/04 07:37:26;;;;;;;;;;;;;;;3.88;100.00;90248.78;5091289;28;19923;-63
2021/12/04 07:39:51;;;;;;;;;;;;;;;3.87;100.00;90244.59;5090293;28;20019;-63
2021/12/04 07:42:17;;;;;;;;;;;;;;;4.01;100.00;90238.63;5091103;28;19920;-63
2021/12/04 07:44:43;;;;;;;;;;;;;;;3.95;100.00;90255.56;5090088;28;19969;-63
2021/12/04 07:47:08;;;;;;;;;;;;;;;4.08;100.00;90237.19;5090554;28;19920;-63
2021/12/04 07:49:37;;;;;;;;;;;;;;;4.23;100.00;90233.56;5091039;28;20321;-63
2021/12/04 07:52:02;;;;;;;;;;;;;;;4.48;100.00;90235.78;5091146;28;20365;-62
2021/12/04 07:54:27;;;;;;;;;;;;;;;4.65;100.00;90227.34;5090471;28;19962;-62
2021/12/04 07:56:53;;;;;;;;;;;;;;;4.83;100.00;90233.63;5090714;28;20065;-62
2021/12/04 07:59:18;;;;;;;;;;;;;;;5.03;100.00;90237.72;5090046;28;20384;-62
2021/12/04 08:01:43;;;;;;;;;;;;;;;5.09;100.00;90232.09;5090516;28;19920;-63
2021/12/04 08:04:09;;;;;;;;;;;;;;;5.17;100.00;90235.13;5090735;28;19920;-63
2021/12/04 08:06:35;;;;;;;;;;;;;;;4.88;100.00;90233.53;5091418;28;20381;-62
2021/12/04 08:09:01;;;;;;;;;;;;;;;4.71;100.00;90218.28;5094280;28;19985;-64
2021/12/04 08:11:26;;;;;;;;;;;;;;;4.55;100.00;90218.81;5095053;28;20377;-63
2021/12/04 08:13:52;;;;;;;;;;;;;;;5.23;100.00;90215.50;5093984;28;19916;-64
2021/12/04 08:16:18;;;;;;;;;;;;;;;6.02;100.00;90217.88;5094339;28;19920;-63
2021/12/04 08:18:44;;;;;;;;;;;;;;;6.02;100.00;90204.66;5095273;28;19920;-64
2021/12/04 08:21:09;;;;;;;;;;;;;;;5.96;100.00;90209.25;5094537;28;19938;-64
2021/12/04 08:23:35;;;;;;;;;;;;;;;6.38;100.00;90207.25;5094297;28;20302;-64
2021/12/04 08:26:00;;;;;;;;;;;;;;;6.59;100.00;90195.09;5094610;28;20309;-64
2021/12/04 08:28:26;;;;;;;;;;;;;;;6.22;100.00;90194.41;5094745;28;20291;-64
2021/12/04 08:30:51;;;;;;;;;;;;;;;5.96;100.00;90199.47;5093304;28;19923;-64
2021/12/04 08:33:16;;;;;;;;;;;;;;;5.37;100.00;90188.06;5094592;28;19924;-64
2021/12/04 08:35:42;;;;;;;;;;;;;;;5.90;100.00;90197.25;5094012;28;19917;-64
2021/12/04 08:38:08;;;;;;;;;;;;;;;6.04;100.00;90191.94;5094089;28;19920;-64
2021/12/04 08:40:34;;;;;;;;;;;;;;;6.33;100.00;90186.25;5094846;28;19923;-64
2021/12/04 08:42:59;;;;;;;;;;;;;;;6.34;100.00;90187.81;5094310;28;20313;-64
2021/12/04 08:45:25;;;;;;;;;;;;;;;6.22;100.00;90181.19;5093214;28;20308;-63
2021/12/04 08:47:51;;;;;;;;;;;;;;;6.25;100.00;90170.03;5094030;28;19976;-63
2021/12/04 08:50:23;;;;;;;;;;;;;;;6.35;100.00;90169.03;5094440;28;20443;-64
2021/12/04 08:52:49;;;;;;;;;;;;;;;6.36;100.00;90164.50;5093791;28;19920;-64
2021/12/04 08:55:15;;;;;;;;;;;;;;;6.00;100.00;90168.78;5094239;28;19916;-63
2021/12/04 08:57:41;;;;;;;;;;;;;;;6.05;100.00;90165.25;5094520;28;20343;-64
2021/12/04 09:00:08;;;;;;;;;;;;;;;5.87;100.00;90163.50;5092567;28;19920;-64
2021/12/04 09:02:33;;;;;;;;;;;;;;;6.00;100.00;90162.72;5094176;28;19922;-63
2021/12/04 09:04:59;;;;;;;;;;;;;;;6.41;100.00;90156.47;5093977;28;19924;-64
2021/12/04 09:07:24;;;;;;;;;;;;;;;6.84;100.00;90154.84;5093787;28;19923;-64
2021/12/04 09:09:54;;;;;;;;;;;;;;;7.11;100.00;90153.84;5093859;28;19916;-65
2021/12/04 09:12:21;;;;;;;;;;;;;;;7.37;100.00;90143.34;5093704;28;19916;-66
2021/12/04 09:14:46;;;;;;;;;;;;;;;7.56;100.00;90137.75;5092312;28;19945;-64
2021/12/04 09:17:13;;;;;;;;;;;;;;;7.70;100.00;90132.34;5093979;28;20003;-65
2021/12/04 09:19:39;;;;;;;;;;;;;;;7.66;100.00;90137.47;5092995;28;19998;-64
2021/12/04 09:22:06;;;;;;;;;;;;;;;7.61;100.00;90140.28;5093310;28;20437;-63
2021/12/04 09:24:40;;;;;;;;;;;;;;;7.63;100.00;90132.81;5093789;28;20381;-63
2021/12/04 09:27:32;;;;;;;;;;;;;;;6.99;100.00;90137.78;5093723;28;19942;-63
2021/12/04 09:30:23;;;;;;;;;;;;;;;6.78;100.00;90139.38;5092296;28;19916;-62
2021/12/04 10:00:32;;;;;;;;;;;;;;;7.12;100.00;90125.53;5090522;28;19920;-65
2021/12/04 10:14:07;;;;;;;;;;;;;;;6.83;100.00;90126.84;5091849;28;19916;-64
2021/12/04 10:21:53;;;;;;;;;;;;;;;6.71;100.00;90139.84;5092128;28;20378;-64
2021/12/04 10:32:39;;;;;;;;;;;;;;;6.71;100.00;90137.19;5092531;28;19967;-63
2021/12/04 10:35:09;;;;;;;;;;;;;;;7.21;100.00;90139.56;5092607;28;19924;-63
2021/12/04 10:37:44;;;;;;;;;;;;;;;7.54;100.00;90139.94;5091373;28;19916;-63
2021/12/04 10:40:09;;;;;;;;;;;;;;;7.30;100.00;90140.38;5092038;28;19963;-63
2021/12/04 10:42:48;;;;;;;;;;;;;;;7.49;100.00;90148.81;5091231;28;19950;-64
2021/12/04 10:45:14;;;;;;;;;;;;;;;7.83;100.00;90147.31;5091531;28;19923;-64
2021/12/04 10:47:49;;;;;;;;;;;;;;;8.27;100.00;90148.88;5091926;28;19928;-63
2021/12/04 10:53:01;;;;;;;;;;;;;;;11.04;89.14;90150.75;5090908;28;19967;-62
2021/12/04 11:23:36;;;;;;;;;;;;;;;7.27;100.00;90134.91;5091594;28;19938;-61
2021/12/04 11:35:08;;;;;;;;;;;;;;;6.29;100.00;90152.50;5091407;28;19977;-61
2021/12/04 11:47:13;;;;;;;;;;;;;;;6.05;100.00;90145.97;5091207;28;19965;-62
2021/12/04 11:49:39;;;;;;;;;;;;;;;6.15;100.00;90143.06;5091238;28;19920;-64
2021/12/04 11:52:11;;;;;;;;;;;;;;;6.19;100.00;90144.84;5091421;28;19922;-65
2021/12/04 11:54:58;;;;;;;;;;;;;;;6.19;100.00;90150.13;5091154;28;19942;-65
2021/12/04 11:57:28;;;;;;;;;;;;;;;6.05;100.00;90146.75;5090423;28;19920;-62
2021/12/04 11:59:53;;;;;;;;;;;;;;;5.98;100.00;90151.66;5091168;28;19996;-63
2021/12/04 12:02:23;;;;;;;;;;;;;;;5.86;100.00;90156.69;5090944;28;19950;-63
2021/12/04 12:04:51;;;;;;;;;;;;;;;5.72;100.00;90156.72;5090938;28;19967;-62
2021/12/04 12:07:18;;;;;;;;;;;;;;;5.77;100.00;90147.91;5091207;28;19916;-68
2021/12/04 12:09:45;;;;;;;;;;;;;;;6.08;100.00;90148.78;5090756;28;19916;-66
2021/12/04 12:12:13;;;;;;;;;;;;;;;6.22;100.00;90143.44;5090114;28;19916;-66
2021/12/04 12:14:53;;;;;;;;;;;;;;;6.15;100.00;90151.78;5091021;28;19920;-65
2021/12/04 12:17:29;;;;;;;;;;;;;;;5.95;100.00;90158.31;5091183;28;19920;-65
2021/12/04 12:19:55;;;;;;;;;;;;;;;5.92;100.00;90143.09;5091424;28;19916;-65
2021/12/04 12:22:27;;;;;;;;;;;;;;;5.80;100.00;90147.28;5090993;28;19970;-63
2021/12/04 12:24:56;;;;;;;;;;;;;;;5.92;100.00;90151.00;5091224;28;19967;-63
2021/12/04 12:37:50;;;;;;;;;;;;;;;6.14;100.00;90138.88;5090955;28;20361;-63
2021/12/04 12:40:19;;;;;;;;;;;;;;;6.19;100.00;90139.56;5090955;28;19946;-63
2021/12/04 12:42:45;;;;;;;;;;;;;;;6.21;100.00;90134.75;5090171;28;19923;-63
2021/12/04 12:45:19;;;;;;;;;;;;;;;5.86;100.00;90135.56;5090772;28;19916;-63
2021/12/04 12:48:01;;;;;;;;;;;;;;;5.88;100.00;90143.97;5090922;28;19927;-63
2021/12/04 12:50:30;;;;;;;;;;;;;;;5.71;100.00;90137.47;5090856;28;19920;-63
2021/12/04 12:53:02;;;;;;;;;;;;;;;5.69;100.00;90137.00;5082078;28;19928;-63
2021/12/04 12:55:32;;;;;;;;;;;;;;;5.56;100.00;90140.44;5085633;28;19923;-63
2021/12/04 12:57:58;;;;;;;;;;;;;;;5.67;100.00;90140.97;5079020;28;19931;-63
2021/12/04 13:14:12;;;;;;;;;;;;;;;5.49;100.00;90150.59;5074307;28;19923;-63
2021/12/04 13:16:38;;;;;;;;;;;;;;;5.36;100.00;90154.03;5072642;28;19959;-63
2021/12/04 13:19:09;;;;;;;;;;;;;;;5.31;100.00;90156.78;5073826;28;20409;-62
2021/12/04 13:21:38;;;;;;;;;;;;;;;5.50;100.00;90164.56;5073829;28;19921;-62
2021/12/04 13:24:03;;;;;;;;;;;;;;;5.40;100.00;90161.09;5083010;28;19969;-63
2021/12/04 13:26:30;;;;;;;;;;;;;;;5.40;100.00;90163.72;5074341;28;19924;-63
2021/12/04 13:28:58;;;;;;;;;;;;;;;5.26;100.00;90167.44;5073540;28;20358;-64
2021/12/04 13:31:24;;;;;;;;;;;;;;;5.15;100.00;90169.50;5073626;28;19916;-63
2021/12/04 13:33:50;;;;;;;;;;;;;;;5.15;100.00;90168.72;5073385;28;19932;-63
2021/12/04 13:36:17;;;;;;;;;;;;;;;5.19;100.00;90174.97;5073377;28;20022;-64
2021/12/04 13:38:43;;;;;;;;;;;;;;;5.26;100.00;90175.38;5073517;28;19917;-63
2021/12/04 13:41:08;;;;;;;;;;;;;;;5.09;100.00;90168.84;5072559;28;19935;-63
2021/12/04 13:43:34;;;;;;;;;;;;;;;5.19;100.00;90172.31;5073381;28;19927;-63
2021/12/04 13:46:00;;;;;;;;;;;;;;;5.17;100.00;90169.19;5073266;28;19948;-63
2021/12/04 13:48:27;;;;;;;;;;;;;;;5.15;100.00;90164.22;5073174;28;20341;-64
2021/12/04 13:50:52;;;;;;;;;;;;;;;5.05;100.00;90167.09;5078730;28;19973;-64
2021/12/04 13:53:32;;;;;;;;;;;;;;;5.15;100.00;90158.19;5092178;28;20356;-62
2021/12/04 13:56:06;;;;;;;;;;;;;;;5.05;100.00;90170.50;5091983;28;20135;-62
2021/12/04 13:58:31;;;;;;;;;;;;;;;5.04;100.00;90174.19;5080130;28;20325;-62
2021/12/04 14:00:58;;;;;;;;;;;;;;;5.00;100.00;90170.56;5082678;28;19923;-63
2021/12/04 14:03:25;;;;;;;;;;;;;;;5.11;100.00;90176.44;5083340;28;20038;-62
2021/12/04 14:05:51;;;;;;;;;;;;;;;5.05;100.00;90167.88;5074929;28;20306;-63
2021/12/04 14:08:17;;;;;;;;;;;;;;;4.95;100.00;90170.69;5072720;28;19913;-64
2021/12/04 14:10:45;;;;;;;;;;;;;;;4.90;100.00;90168.16;5071990;28;19917;-63
2021/12/04 14:13:11;;;;;;;;;;;;;;;4.82;100.00;90166.19;5081984;28;19923;-63
2021/12/04 14:15:37;;;;;;;;;;;;;;;4.75;100.00;90171.84;5093064;28;19970;-63
2021/12/04 14:18:04;;;;;;;;;;;;;;;4.80;100.00;90165.69;5083264;28;20309;-63
2021/12/04 14:20:30;;;;;;;;;;;;;;;4.84;100.00;90168.53;5077140;28;19920;-63
2021/12/04 14:22:56;;;;;;;;;;;;;;;4.97;100.00;90173.81;5081074;28;19939;-64
2021/12/04 14:25:22;;;;;;;;;;;;;;;4.94;100.00;90171.75;5071649;28;19925;-64
2021/12/04 14:27:49;;;;;;;;;;;;;;;5.00;100.00;90173.22;5072521;28;20003;-64
2021/12/04 14:30:16;;;;;;;;;;;;;;;4.92;100.00;90170.50;5072468;28;19920;-64
2021/12/04 14:32:45;;;;;;;;;;;;;;;5.18;100.00;90173.41;5072192;28;19967;-64
2021/12/04 14:35:14;;;;;;;;;;;;;;;5.15;100.00;90163.44;5072141;28;19916;-63
2021/12/04 14:37:41;;;;;;;;;;;;;;;5.05;100.00;90159.19;5072288;28;19916;-63
2021/12/04 14:40:11;;;;;;;;;;;;;;;5.03;100.00;90151.53;5071793;28;19959;-63
2021/12/04 14:42:37;;;;;;;;;;;;;;;4.91;100.00;90148.63;5070628;28;19973;-63
2021/12/04 14:45:07;;;;;;;;;;;;;;;4.82;100.00;90155.66;5072324;28;19916;-63
2021/12/04 14:47:35;;;;;;;;;;;;;;;4.77;100.00;90163.66;5072302;28;19921;-62
2021/12/04 14:50:02;;;;;;;;;;;;;;;4.81;100.00;90154.88;5072431;28;19923;-63
2021/12/04 14:52:30;;;;;;;;;;;;;;;4.85;100.00;90168.22;5072406;28;19927;-63
2021/12/04 14:54:56;;;;;;;;;;;;;;;4.75;100.00;90153.41;5072230;28;19923;-64
2021/12/04 14:57:24;;;;;;;;;;;;;;;4.92;100.00;90160.72;5072261;28;19916;-62
2021/12/04 15:00:00;;;;;;;;;;;;;;;4.99;100.00;90168.25;5072293;28;19920;-62
2021/12/04 15:02:26;;;;;;;;;;;;;;;4.86;100.00;90161.88;5072176;28;20405;-62
2021/12/04 15:04:51;;;;;;;;;;;;;;;4.80;100.00;90163.84;5072177;28;19948;-62
2021/12/04 15:07:17;;;;;;;;;;;;;;;4.83;100.00;90173.00;5072369;28;19922;-62
2021/12/04 15:09:43;;;;;;;;;;;;;;;4.80;100.00;90171.75;5072127;28;20383;-62
2021/12/04 15:12:08;;;;;;;;;;;;;;;4.77;100.00;90172.34;5072090;28;19930;-62
2021/12/04 15:14:34;;;;;;;;;;;;;;;4.77;100.00;90174.97;5071918;28;20317;-62
2021/12/04 15:17:06;;;;;;;;;;;;;;;4.79;100.00;90174.69;5071268;28;19917;-62
2021/12/04 15:19:43;;;;;;;;;;;;;;;4.77;100.00;90176.81;5071873;28;19916;-62
2021/12/04 15:22:16;;;;;;;;;;;;;;;4.76;100.00;90180.53;5071829;28;19928;-62
2021/12/04 15:24:43;;;;;;;;;;;;;;;4.79;100.00;90178.09;5071629;28;19917;-63
2021/12/04 15:27:15;;;;;;;;;;;;;;;4.63;100.00;90179.44;5071878;28;19956;-62
2021/12/04 15:29:43;;;;;;;;;;;;;;;4.57;100.00;90179.81;5072081;28;19916;-63
2021/12/04 15:32:11;;;;;;;;;;;;;;;4.49;100.00;90174.16;5071804;28;19977;-63
2021/12/04 15:34:41;;;;;;;;;;;;;;;4.47;100.00;90168.38;5071341;28;19920;-63
2021/12/04 15:37:09;;;;;;;;;;;;;;;4.50;100.00;90169.66;5070920;28;20148;-63
2021/12/04 15:39:39;;;;;;;;;;;;;;;4.37;100.00;90176.44;5071703;28;19920;-63
2021/12/04 15:42:23;;;;;;;;;;;;;;;4.35;100.00;90177.81;5071699;28;19921;-62
2021/12/04 15:47:44;;;;;;;;;;;;;;;4.26;100.00;90180.34;5071986;28;19974;-64
2021/12/04 15:55:23;;;;;;;;;;;;;;;4.10;100.00;90179.00;5071384;28;19920;-63
2021/12/04 15:57:54;;;;;;;;;;;;;;;4.02;100.00;90180.44;5071533;28;19963;-63
2021/12/04 16:00:19;;;;;;;;;;;;;;;4.02;100.00;90169.16;5071440;28;20397;-63
2021/12/04 16:02:50;;;;;;;;;;;;;;;4.08;100.00;90179.28;5071516;28;19923;-63
2021/12/04 16:05:19;;;;;;;;;;;;;;;4.07;100.00;90179.59;5071346;28;19955;-64